Saxton, Illinois
Current Conditions -  °F | °C
As of 8:15 AM on Sunday 21 Dec 2014 (Local Time) from KC75 Reporting Station
Overcast Overcast  
Wind Chill: 28°   Ceiling: 3800
Heat Index: 34°   Visibility: 7mi
Dew Point: 30°   Wind: 7mph
Humidity: 85%   Direction: 170°S
Pressure: 30.17"   Gusts: NA
Location:  41.1043°N, 89.8577°W
Report Text: KC75 211415Z AUTO 17006KT 7SM OVC038 01/M01 A3017 RMK AO2 T00121010
Loading
Personal Weather Stations






























Interactive Weather Map New forecast layout! Learn more

10-Day Weather Forecast

Advertisements
Track Severe Weather on mobile